createdAt,value
2018-02-05T00:00:18.057Z,1.30
2018-02-05T00:02:45.829Z,1.30
2018-02-05T00:05:13.697Z,1.30
2018-02-05T00:07:41.564Z,1.30
2018-02-05T00:10:09.354Z,1.30
2018-02-05T00:12:37.370Z,1.20
2018-02-05T00:15:05.202Z,1.20
2018-02-05T00:17:33.750Z,1.20
2018-02-05T00:20:01.617Z,1.20
2018-02-05T00:22:29.483Z,1.20
2018-02-05T00:24:57.284Z,1.10
2018-02-05T00:27:25.936Z,1.10
2018-02-05T00:29:53.804Z,1.10
2018-02-05T00:32:21.671Z,1.10
2018-02-05T00:34:49.436Z,1.10
2018-02-05T00:37:17.303Z,1.20
2018-02-05T00:39:45.025Z,1.20
2018-02-05T00:42:12.758Z,1.20
2018-02-05T00:44:40.484Z,1.20
2018-02-05T00:47:08.362Z,1.30
2018-02-05T00:49:36.230Z,1.20
2018-02-05T00:52:04.098Z,1.20
2018-02-05T00:54:31.964Z,1.30
2018-02-05T00:56:59.697Z,1.20
2018-02-05T00:59:27.473Z,1.20
2018-02-05T01:01:55.208Z,1.20
2018-02-05T01:04:22.974Z,1.40
2018-02-05T01:06:50.701Z,1.40
2018-02-05T01:09:18.430Z,1.40
2018-02-05T01:11:46.319Z,1.50
2018-02-05T01:14:14.186Z,1.40
2018-02-05T01:16:42.054Z,1.50
2018-02-05T01:19:09.920Z,1.40
2018-02-05T01:21:37.790Z,1.50
2018-02-05T01:24:05.655Z,1.40
2018-02-05T01:26:33.523Z,1.40
2018-02-05T01:29:01.391Z,1.40
2018-02-05T01:31:29.257Z,1.50
2018-02-05T01:33:57.126Z,1.40
2018-02-05T01:36:24.992Z,1.30
2018-02-05T01:38:52.859Z,1.30
2018-02-05T01:41:20.585Z,1.40
2018-02-05T01:43:48.389Z,1.40
2018-02-05T01:46:16.185Z,1.40
2018-02-05T01:48:43.976Z,1.40
2018-02-05T01:51:11.786Z,1.40
2018-02-05T01:53:39.658Z,1.30
2018-02-05T01:56:07.382Z,1.40
2018-02-05T01:58:35.184Z,1.50
2018-02-05T02:01:03.051Z,1.60
2018-02-05T02:03:31.020Z,1.60
2018-02-05T02:05:58.887Z,1.50
2018-02-05T02:08:26.627Z,1.40
2018-02-05T02:10:54.372Z,1.40
2018-02-05T02:13:22.099Z,1.40
2018-02-05T02:15:49.949Z,1.30
2018-02-05T02:18:17.673Z,1.20
2018-02-05T02:20:45.476Z,1.30
2018-02-05T02:23:13.344Z,1.20
2018-02-05T02:25:41.212Z,1.20
2018-02-05T02:28:08.955Z,1.30
2018-02-05T02:30:36.682Z,1.30
2018-02-05T02:33:05.193Z,1.40
2018-02-05T02:35:32.937Z,1.40
2018-02-05T02:38:01.573Z,1.30
2018-02-05T02:40:29.305Z,1.30
2018-02-05T02:42:57.042Z,1.30
2018-02-05T02:45:25.538Z,1.20
2018-02-05T02:47:53.314Z,1.20
2018-02-05T02:50:21.047Z,1.30
2018-02-05T02:52:48.883Z,1.30
2018-02-05T02:55:16.746Z,1.30
2018-02-05T02:57:44.612Z,1.40
2018-02-05T03:00:12.342Z,1.40
2018-02-05T03:02:40.143Z,1.40
2018-02-05T03:05:08.011Z,1.50
2018-02-05T03:07:36.081Z,1.50
2018-02-05T03:10:03.809Z,1.50
2018-02-05T03:12:31.714Z,1.60
2018-02-05T03:14:59.583Z,1.60
2018-02-05T03:17:28.248Z,1.70
2018-02-05T03:19:56.136Z,1.60
2018-02-05T03:22:23.866Z,1.60
2018-02-05T03:24:51.598Z,1.60
2018-02-05T03:27:20.090Z,1.50
2018-02-05T03:29:48.593Z,1.50
2018-02-05T03:32:16.393Z,1.50
2018-02-05T03:34:44.262Z,1.60
2018-02-05T03:37:12.129Z,1.50
2018-02-05T03:39:39.850Z,1.50
2018-02-05T03:42:07.585Z,1.60
2018-02-05T03:44:35.312Z,1.60
2018-02-05T03:47:03.220Z,1.60
2018-02-05T03:49:31.157Z,1.60
2018-02-05T03:51:59.025Z,1.60
2018-02-05T03:54:26.756Z,1.60
2018-02-05T03:56:54.510Z,1.60
2018-02-05T03:59:22.224Z,1.70
2018-02-05T04:01:49.959Z,1.60
2018-02-05T04:04:17.850Z,1.60
2018-02-05T04:06:51.132Z,1.60
2018-02-05T04:09:18.931Z,1.50
2018-02-05T04:11:46.656Z,1.50
2018-02-05T04:14:14.425Z,1.50
2018-02-05T04:16:42.308Z,1.50
2018-02-05T04:19:10.277Z,1.40
2018-02-05T04:21:38.144Z,1.40
2018-02-05T04:24:05.869Z,1.40
2018-02-05T04:26:33.588Z,1.40
2018-02-05T04:29:01.327Z,1.40
2018-02-05T04:34:04.034Z,1.30
2018-02-05T04:36:31.900Z,1.30
2018-02-05T04:38:59.769Z,1.30
2018-02-05T04:41:27.635Z,1.20
2018-02-05T04:43:55.362Z,1.10
2018-02-05T04:46:23.087Z,1.00
2018-02-05T04:48:51.852Z,0.90
2018-02-05T04:51:19.719Z,0.80
2018-02-05T04:53:47.585Z,0.70
2018-02-05T04:56:15.319Z,0.50
2018-02-05T04:58:43.054Z,0.40
2018-02-05T05:01:11.541Z,0.50
2018-02-05T05:03:40.047Z,0.40
2018-02-05T05:06:07.767Z,0.40
2018-02-05T05:08:35.499Z,0.30
2018-02-05T05:11:03.375Z,0.10
2018-02-05T05:13:31.242Z,0.10
2018-02-05T05:15:59.110Z,0.20
2018-02-05T05:18:31.157Z,0.20
2018-02-05T05:21:00.710Z,0.30
2018-02-05T05:23:29.258Z,0.20
2018-02-05T05:25:57.104Z,0.20
2018-02-05T05:28:24.832Z,0.20
2018-02-05T05:31:11.558Z,0.20
2018-02-05T05:33:42.563Z,0.10
2018-02-05T05:36:12.899Z,0.10
2018-02-05T05:38:43.667Z,-0.10
2018-02-05T05:41:11.477Z,-0.10
2018-02-05T05:43:39.207Z,-0.20
2018-02-05T05:46:06.943Z,-0.20
2018-02-05T05:48:35.442Z,-0.20
2018-02-05T05:51:03.174Z,-0.20
2018-02-05T05:53:31.013Z,-0.20
2018-02-05T05:55:58.880Z,-0.20
2018-02-05T05:58:26.748Z,-0.20
2018-02-05T06:00:54.616Z,-0.30
2018-02-05T06:03:22.482Z,-0.30
2018-02-05T06:05:50.206Z,-0.20
2018-02-05T06:08:17.950Z,-0.20
2018-02-05T06:10:46.442Z,-0.20
2018-02-05T06:13:14.941Z,-0.20
2018-02-05T06:15:42.740Z,-0.30
2018-02-05T06:18:10.607Z,-0.30
2018-02-05T06:20:38.475Z,-0.30
2018-02-05T06:23:06.342Z,-0.30
2018-02-05T06:25:34.209Z,-0.30
2018-02-05T06:28:02.078Z,-0.30
2018-02-05T06:30:29.802Z,-0.30
2018-02-05T06:32:57.525Z,-0.20
2018-02-05T06:35:25.254Z,-0.30
2018-02-05T06:37:53.136Z,-0.30
2018-02-05T06:40:21.004Z,-0.30
2018-02-05T06:42:48.974Z,-0.30
2018-02-05T06:45:16.840Z,-0.30
2018-02-05T06:47:44.707Z,-0.40
2018-02-05T06:53:17.205Z,-0.30
2018-02-05T06:55:47.938Z,-0.30
2018-02-05T06:58:15.805Z,-0.40
2018-02-05T07:00:43.524Z,-0.30
2018-02-05T07:03:11.249Z,-0.40
2018-02-05T07:05:38.983Z,-0.40
2018-02-05T07:08:06.709Z,-0.40
2018-02-05T07:10:35.348Z,-0.40
2018-02-05T07:13:03.215Z,-0.50
2018-02-05T07:15:31.083Z,-0.50
2018-02-05T07:17:58.949Z,-0.40
2018-02-05T07:20:26.677Z,-0.40
2018-02-05T07:22:54.733Z,-0.40
2018-02-05T07:25:23.370Z,-0.40
2018-02-05T07:27:51.239Z,-0.40
2018-02-05T07:30:19.105Z,-0.30
2018-02-05T07:32:46.825Z,-0.30
2018-02-05T07:35:14.556Z,-0.20
2018-02-05T07:37:42.281Z,-0.20
2018-02-05T07:40:10.002Z,-0.10
2018-02-05T07:42:38.486Z,0.00
2018-02-05T07:45:06.969Z,0.20
2018-02-05T07:47:35.610Z,0.20
2018-02-05T07:50:03.477Z,0.20
2018-02-05T07:52:31.195Z,0.30
2018-02-05T07:54:58.919Z,0.30
2018-02-05T07:57:26.778Z,0.40
2018-02-05T07:59:54.494Z,0.40
2018-02-05T08:02:22.302Z,0.40
2018-02-05T08:04:50.168Z,0.40
2018-02-05T08:07:18.036Z,0.50
2018-02-05T08:09:45.902Z,0.50
2018-02-05T08:12:13.705Z,0.50
2018-02-05T08:14:42.222Z,0.60
2018-02-05T08:17:09.975Z,0.60
2018-02-05T08:19:37.701Z,0.70
2018-02-05T08:22:05.548Z,0.80
2018-02-05T08:24:33.417Z,1.00
2018-02-05T08:27:01.214Z,1.20
2018-02-05T08:29:29.866Z,2.20
2018-02-05T08:31:57.733Z,2.20
2018-02-05T08:34:25.601Z,3.00
2018-02-05T08:36:53.467Z,3.60
2018-02-05T08:39:21.334Z,4.50
2018-02-05T08:41:49.202Z,5.20
2018-02-05T08:44:17.069Z,5.30
2018-02-05T08:46:44.936Z,5.70
2018-02-05T08:49:12.804Z,6.20
2018-02-05T08:51:40.671Z,5.90
2018-02-05T08:54:08.538Z,5.50
2018-02-05T08:56:36.405Z,5.00
2018-02-05T08:59:04.273Z,4.00
2018-02-05T09:01:32.149Z,3.70
2018-02-05T09:04:00.008Z,3.20
2018-02-05T09:06:27.875Z,2.90
2018-02-05T09:08:55.744Z,3.00
2018-02-05T09:11:23.610Z,3.20
2018-02-05T09:13:51.477Z,3.00
2018-02-05T09:16:19.345Z,2.80
2018-02-05T09:18:47.056Z,2.70
2018-02-05T09:21:15.543Z,2.40
2018-02-05T09:23:43.357Z,2.30
2018-02-05T09:26:11.224Z,2.40
2018-02-05T09:28:39.139Z,2.10
2018-02-05T09:31:07.776Z,2.10
2018-02-05T09:33:35.578Z,2.10
2018-02-05T09:36:04.065Z,3.40
2018-02-05T09:38:32.711Z,4.10
2018-02-05T09:41:00.577Z,4.10
2018-02-05T09:43:28.334Z,5.40
2018-02-05T09:45:56.053Z,5.00
2018-02-05T09:48:24.541Z,4.20
2018-02-05T09:50:53.038Z,3.90
2018-02-05T09:53:20.798Z,3.90
2018-02-05T09:55:48.513Z,3.80
2018-02-05T09:58:16.240Z,3.70
2018-02-05T10:00:43.957Z,3.30
2018-02-05T10:03:11.679Z,3.10
2018-02-05T10:05:39.406Z,3.10
2018-02-05T10:08:08.038Z,3.60
2018-02-05T10:10:35.906Z,3.60
2018-02-05T10:13:03.777Z,4.80
2018-02-05T10:15:31.640Z,7.50
2018-02-05T10:17:59.508Z,10.70
2018-02-05T10:20:27.378Z,12.30
2018-02-05T10:22:55.243Z,12.80
2018-02-05T10:25:23.110Z,14.70
2018-02-05T10:27:50.977Z,16.60
2018-02-05T10:30:18.844Z,17.80
2018-02-05T10:32:46.712Z,18.50
2018-02-05T10:35:14.579Z,19.10
2018-02-05T10:37:42.447Z,20.60
2018-02-05T10:40:10.314Z,21.80
2018-02-05T10:42:38.181Z,22.20
2018-02-05T10:45:06.050Z,22.10
2018-02-05T10:47:33.916Z,22.40
2018-02-05T10:50:01.783Z,22.80
2018-02-05T10:52:29.650Z,23.80
2018-02-05T10:54:57.445Z,24.10
2018-02-05T10:57:26.101Z,20.80
2018-02-05T10:59:53.968Z,20.80
2018-02-05T11:02:21.837Z,21.10
2018-02-05T11:04:49.703Z,22.40
2018-02-05T11:07:17.571Z,23.10
2018-02-05T11:09:45.437Z,24.20
2018-02-05T11:12:13.305Z,25.00
2018-02-05T11:14:41.172Z,25.00
2018-02-05T11:17:09.040Z,23.50
2018-02-05T11:19:36.907Z,23.20
2018-02-05T11:22:04.775Z,23.90
2018-02-05T11:24:32.642Z,22.90
2018-02-05T11:27:00.509Z,22.00
2018-02-05T11:29:28.376Z,21.90
2018-02-05T11:31:56.346Z,21.90
2018-02-05T11:34:24.214Z,21.60
2018-02-05T11:36:52.082Z,22.60
2018-02-05T11:39:19.948Z,21.90
2018-02-05T11:41:47.665Z,20.10
2018-02-05T11:44:16.145Z,14.10
2018-02-05T11:46:44.778Z,13.20
2018-02-05T11:49:12.544Z,13.10
2018-02-05T11:51:40.269Z,14.30
2018-02-05T11:54:08.795Z,15.80
2018-02-05T11:56:37.509Z,15.20
2018-02-05T11:59:05.225Z,14.70
2018-02-05T12:01:33.110Z,14.70
2018-02-05T12:04:00.979Z,14.20
2018-02-05T12:06:28.844Z,13.90
2018-02-05T12:08:56.561Z,14.40
2018-02-05T12:11:24.273Z,15.50
2018-02-05T12:13:51.988Z,17.20
2018-02-05T12:16:20.620Z,19.70
2018-02-05T12:18:49.409Z,19.60
2018-02-05T12:21:17.276Z,20.40
2018-02-05T12:23:45.143Z,19.10
2018-02-05T12:26:12.941Z,19.80
2018-02-05T12:28:40.657Z,19.30
2018-02-05T12:31:08.543Z,19.30
2018-02-05T12:33:36.407Z,18.60
2018-02-05T12:36:04.277Z,16.10
2018-02-05T12:38:31.990Z,16.90
2018-02-05T12:41:00.474Z,17.70
2018-02-05T12:43:28.954Z,18.00
2018-02-05T12:45:57.587Z,18.80
2018-02-05T12:48:25.459Z,18.70
2018-02-05T12:50:53.181Z,18.70
2018-02-05T12:53:21.089Z,16.70
2018-02-05T12:55:48.893Z,14.30
2018-02-05T12:58:17.461Z,12.50
2018-02-05T13:00:51.038Z,12.50
2018-02-05T13:03:33.668Z,12.50
2018-02-05T13:06:11.451Z,13.10
2018-02-05T13:08:39.319Z,12.30
2018-02-05T13:11:07.186Z,12.80
2018-02-05T13:13:35.053Z,13.00
2018-02-05T13:16:03.024Z,13.20
2018-02-05T13:18:30.745Z,13.10
2018-02-05T13:20:58.553Z,12.50
2018-02-05T13:23:26.420Z,13.10
2018-02-05T13:25:54.220Z,12.70
2018-02-05T13:28:22.723Z,10.90
2018-02-05T13:30:50.509Z,10.90
2018-02-05T13:33:18.401Z,10.80
2018-02-05T13:35:46.268Z,11.30
2018-02-05T13:38:13.997Z,11.90
2018-02-05T13:40:41.799Z,11.40
2018-02-05T13:43:09.666Z,11.10
2018-02-05T13:45:37.394Z,11.00
2018-02-05T13:48:05.194Z,11.20
2018-02-05T13:50:32.922Z,11.40
2018-02-05T13:53:00.830Z,11.60
2018-02-05T13:55:28.624Z,11.20
2018-02-05T13:57:57.134Z,10.70
2018-02-05T14:00:24.878Z,10.70
2018-02-05T14:02:53.369Z,9.50
2018-02-05T14:05:22.010Z,9.70
2018-02-05T14:07:49.723Z,9.70
2018-02-05T14:10:18.355Z,8.80
2018-02-05T14:12:46.225Z,8.80
2018-02-05T14:15:14.090Z,9.10
2018-02-05T14:17:41.959Z,8.50
2018-02-05T14:20:09.722Z,7.90
2018-02-05T14:22:37.590Z,7.60
2018-02-05T14:25:05.458Z,7.40
2018-02-05T14:27:33.330Z,7.70
2018-02-05T14:30:01.192Z,7.60
2018-02-05T14:32:28.921Z,7.60
2018-02-05T14:34:56.722Z,7.30
2018-02-05T14:37:24.588Z,6.50
2018-02-05T14:39:52.456Z,6.00
2018-02-05T14:42:20.373Z,5.80
2018-02-05T14:44:49.010Z,5.50
2018-02-05T14:47:16.723Z,5.50
2018-02-05T14:49:45.202Z,5.20
2018-02-05T14:52:13.841Z,5.10
2018-02-05T14:54:41.553Z,5.00
2018-02-05T14:57:10.034Z,4.90
2018-02-05T14:59:38.671Z,4.70
2018-02-05T15:02:06.489Z,4.70
2018-02-05T15:04:35.122Z,4.90
2018-02-05T15:07:02.990Z,4.90
2018-02-05T15:09:30.754Z,5.00
2018-02-05T15:11:58.621Z,4.90
2018-02-05T15:14:26.337Z,5.00
2018-02-05T15:16:54.975Z,4.90
2018-02-05T15:19:22.735Z,4.90
2018-02-05T15:21:50.465Z,4.90
2018-02-05T15:24:18.179Z,4.90
2018-02-05T15:26:45.898Z,4.90
2018-02-05T15:29:13.612Z,4.70
2018-02-05T15:31:41.345Z,4.70
2018-02-05T15:34:09.057Z,4.70
2018-02-05T15:36:37.705Z,4.40
2018-02-05T15:39:06.197Z,4.40
2018-02-05T15:41:33.909Z,4.30
2018-02-05T15:44:01.716Z,4.20
2018-02-05T15:46:29.583Z,4.10
2018-02-05T15:48:57.450Z,4.00
2018-02-05T15:51:25.161Z,4.00
2018-02-05T15:53:53.798Z,3.80
2018-02-05T15:56:21.666Z,3.70
2018-02-05T15:58:49.533Z,3.80
2018-02-05T16:01:17.400Z,4.00
2018-02-05T16:03:45.269Z,4.30
2018-02-05T16:06:12.987Z,4.40
2018-02-05T16:08:40.703Z,4.40
2018-02-05T16:11:08.564Z,4.20
2018-02-05T16:13:36.430Z,3.90
2018-02-05T16:16:04.298Z,3.60
2018-02-05T16:18:32.168Z,3.30
2018-02-05T16:21:00.033Z,3.20
2018-02-05T16:23:27.901Z,3.10
2018-02-05T16:25:55.776Z,3.00
2018-02-05T16:28:23.531Z,2.90
2018-02-05T16:30:51.399Z,2.90
2018-02-05T16:33:19.341Z,2.70
2018-02-05T16:35:50.089Z,2.70
2018-02-05T16:38:21.392Z,2.60
2018-02-05T16:48:59.410Z,2.50
2018-02-05T16:51:27.517Z,2.10
2018-02-05T16:53:55.393Z,2.00
2018-02-05T16:56:24.157Z,2.00
2018-02-05T16:58:52.873Z,1.90
2018-02-05T17:01:21.512Z,1.90
2018-02-05T17:03:49.381Z,1.90
2018-02-05T17:06:17.246Z,1.90
2018-02-05T17:08:45.119Z,1.90
2018-02-05T17:11:12.980Z,1.80
2018-02-05T17:13:40.853Z,1.80
2018-02-05T17:16:08.715Z,1.80
2018-02-05T17:18:36.583Z,1.70
2018-02-05T17:21:04.449Z,1.70
2018-02-05T17:23:32.323Z,1.60
2018-02-05T17:26:00.186Z,1.50
2018-02-05T17:28:28.052Z,1.50
2018-02-05T17:30:55.920Z,1.40
2018-02-05T17:33:23.889Z,1.40
2018-02-05T17:35:51.756Z,1.40
2018-02-05T17:38:19.623Z,1.30
2018-02-05T17:40:47.491Z,1.30
2018-02-05T17:43:15.360Z,1.30
2018-02-05T17:45:43.226Z,1.20
2018-02-05T17:48:10.939Z,1.20
2018-02-05T17:50:39.438Z,1.10
2018-02-05T17:53:07.237Z,1.10
2018-02-05T17:55:35.103Z,1.10
2018-02-05T17:58:02.972Z,1.10
2018-02-05T18:00:30.839Z,1.10
2018-02-05T18:02:58.706Z,1.10
2018-02-05T18:05:26.574Z,1.00
2018-02-05T18:07:54.440Z,1.00
2018-02-05T18:10:22.309Z,1.00
2018-02-05T18:12:50.182Z,1.00
2018-02-05T18:15:18.043Z,0.90
2018-02-05T18:17:45.911Z,0.90
2018-02-05T18:20:13.777Z,0.90
2018-02-05T18:22:41.644Z,0.90
2018-02-05T18:25:09.512Z,0.90
2018-02-05T18:27:37.383Z,1.00
2018-02-05T18:30:05.246Z,0.90
2018-02-05T18:32:33.114Z,0.90
2018-02-05T18:35:00.981Z,0.90
2018-02-05T18:37:28.848Z,0.80
2018-02-05T18:39:56.717Z,0.80
2018-02-05T18:42:24.584Z,0.80
2018-02-05T18:44:52.451Z,0.80
2018-02-05T18:47:20.318Z,0.80
2018-02-05T18:49:48.209Z,0.80
2018-02-05T18:52:16.768Z,0.70
2018-02-05T18:54:44.635Z,0.70
2018-02-05T18:57:12.503Z,0.70
2018-02-05T18:59:40.369Z,0.70
2018-02-05T19:02:20.218Z,0.70
2018-02-05T19:04:48.085Z,0.70
2018-02-05T19:07:15.953Z,0.70
2018-02-05T19:09:43.820Z,0.70
2018-02-05T19:12:11.687Z,0.60
2018-02-05T19:14:39.554Z,0.60
2018-02-05T19:17:07.422Z,0.70
2018-02-05T19:19:35.291Z,0.70
2018-02-05T19:22:03.159Z,0.70
2018-02-05T19:24:31.026Z,0.70
2018-02-05T19:26:58.891Z,0.70
2018-02-05T19:29:26.759Z,0.60
2018-02-05T19:31:54.629Z,0.60
2018-02-05T19:34:22.494Z,0.60
2018-02-05T19:36:50.360Z,0.60
2018-02-05T19:39:18.226Z,0.50
2018-02-05T19:41:46.094Z,0.60
2018-02-05T19:44:13.962Z,0.80
2018-02-05T19:46:41.830Z,0.90
2018-02-05T19:49:09.697Z,1.00
2018-02-05T19:51:37.563Z,0.90
2018-02-05T19:54:05.431Z,0.80
2018-02-05T19:56:33.298Z,0.90
2018-02-05T19:59:01.165Z,0.80
2018-02-05T20:01:29.038Z,0.80
2018-02-05T20:03:56.900Z,0.90
2018-02-05T20:06:24.769Z,0.80
2018-02-05T20:08:52.737Z,0.80
2018-02-05T20:11:21.221Z,0.80
2018-02-05T20:13:49.085Z,0.80
2018-02-05T20:16:16.954Z,0.70
2018-02-05T20:18:44.821Z,0.60
2018-02-05T20:21:12.694Z,0.50
2018-02-05T20:23:40.555Z,0.60
2018-02-05T20:26:08.769Z,0.50
2018-02-05T20:28:37.417Z,0.60
2018-02-05T20:31:05.285Z,0.60
2018-02-05T20:33:33.868Z,0.60
2018-02-05T20:36:01.735Z,0.60
2018-02-05T20:38:29.603Z,0.50
2018-02-05T20:40:57.340Z,0.50
2018-02-05T20:43:25.235Z,0.40
2018-02-05T20:45:53.102Z,0.40
2018-02-05T20:48:20.969Z,0.40
2018-02-05T20:50:48.840Z,0.40
2018-02-05T20:53:16.708Z,0.30
2018-02-05T20:55:44.575Z,0.30
2018-02-05T20:58:12.438Z,0.20
2018-02-05T21:00:40.306Z,0.10
2018-02-05T21:03:08.173Z,0.10
2018-02-05T21:05:36.072Z,0.00
2018-02-05T21:08:04.727Z,0.00
2018-02-05T21:10:32.595Z,-0.10
2018-02-05T21:13:00.462Z,-0.10
2018-02-05T21:15:28.331Z,-0.10
2018-02-05T21:17:56.125Z,-0.10
2018-02-05T21:20:23.966Z,-0.10
2018-02-05T21:22:51.829Z,-0.10
2018-02-05T21:25:19.695Z,-0.10
2018-02-05T21:27:47.563Z,-0.10
2018-02-05T21:30:15.434Z,0.00
2018-02-05T21:32:43.300Z,0.00
2018-02-05T21:35:11.169Z,0.00
2018-02-05T21:37:39.032Z,0.00
2018-02-05T21:40:06.899Z,0.00
2018-02-05T21:42:34.770Z,0.10
2018-02-05T21:45:02.635Z,0.20
2018-02-05T21:47:30.502Z,0.20
2018-02-05T21:49:58.369Z,0.30
2018-02-05T21:52:26.236Z,0.40
2018-02-05T21:54:54.039Z,0.30
2018-02-05T21:57:22.734Z,0.40
2018-02-05T21:59:51.278Z,0.40
2018-02-05T22:02:19.138Z,0.40
2018-02-05T22:04:47.006Z,0.40
2018-02-05T22:07:14.801Z,0.50
2018-02-05T22:09:42.638Z,0.50
2018-02-05T22:12:10.505Z,0.50
2018-02-05T22:14:38.376Z,0.60
2018-02-05T22:17:06.241Z,0.50
2018-02-05T22:19:34.110Z,0.50
2018-02-05T22:22:01.975Z,0.50
2018-02-05T22:24:29.846Z,0.50
2018-02-05T22:26:57.709Z,0.60
2018-02-05T22:29:25.577Z,0.50
2018-02-05T22:31:53.444Z,0.50
2018-02-05T22:34:21.312Z,0.60
2018-02-05T22:36:49.179Z,0.60
2018-02-05T22:39:17.046Z,0.50
2018-02-05T22:41:44.914Z,0.50
2018-02-05T22:44:12.781Z,0.60
2018-02-05T22:46:40.650Z,0.60
2018-02-05T22:49:08.519Z,0.60
2018-02-05T22:51:36.382Z,0.50
2018-02-05T22:54:04.250Z,0.60
2018-02-05T22:56:32.117Z,0.70
2018-02-05T22:58:59.987Z,0.60
2018-02-05T23:01:27.852Z,0.80
2018-02-05T23:03:55.721Z,0.80
2018-02-05T23:06:23.588Z,0.70
2018-02-05T23:08:51.454Z,0.80
2018-02-05T23:11:19.322Z,0.60
2018-02-05T23:13:47.189Z,0.50
2018-02-05T23:16:15.056Z,0.50
2018-02-05T23:18:42.924Z,0.50
2018-02-05T23:21:10.790Z,0.50
2018-02-05T23:23:38.658Z,0.50
2018-02-05T23:26:06.525Z,0.50
2018-02-05T23:28:34.749Z,0.60
2018-02-05T23:31:03.318Z,0.50
2018-02-05T23:33:32.073Z,0.50
2018-02-05T23:35:59.940Z,0.50
2018-02-05T23:38:27.808Z,0.50
2018-02-05T23:40:55.674Z,0.50
2018-02-05T23:43:23.542Z,0.50
2018-02-05T23:45:51.409Z,0.40
2018-02-05T23:48:19.279Z,0.40
2018-02-05T23:50:47.143Z,0.50
2018-02-05T23:53:15.013Z,0.60
2018-02-05T23:55:42.879Z,0.60
2018-02-05T23:58:10.677Z,0.60
